British Ensign — MMER9 — position and weather

sailwx.info

Track history (hours):
 
Tides and Currents Weather Stations Pressure Air Temp Water Temp Dewpoint Dewpoint Depression Visibility Wind Speed Wind Dir Waves Ship Positions

British Ensign

Last reported at 2014-Oct-31 20:33 UTC. Time now 2014-Oct-31 20:55 UTC.
Position N 55°08' E 014°18'.

Length 184.2 m; beam 27.4 m; draft 11.3 m.

Type: Ship. MMSI: 235010980.

Date/timePositionNaut miles runAvg speedWind from/ knotsBaromVisibWave heightAir tempDewpointWater temp
2014-Oct-31 20:33N 55°08' E 014°18'1312.7
2014-Oct-31 19:33N 55°15' E 014°37'1111.0
2014-Oct-31 18:33N 55°20' E 014°53'1010.2
2014-Oct-31 17:33N 55°26' E 015°09'1313.3
2014-Oct-31 16:33N 55°32' E 015°30'33711.9
2014-Oct-30 12:14N 59°34' E 022°47'1014.6
2014-Oct-30 11:33N 59°35' E 023°06'1313.0
2014-Oct-30 10:34N 59°39' E 023°31'1312.8
2014-Oct-30 09:34N 59°43' E 023°55'1312.8
2014-Oct-30 08:33N 59°46' E 024°20'1312.8
2014-Oct-30 07:33N 59°49' E 024°45'2512.3
2014-Oct-30 05:33N 59°57' E 025°31'1210.9
2014-Oct-30 04:27N 60°08' E 025°39'1 0.0
2014-Oct-28 18:32N 60°08' E 025°39'38 9.5
2014-Oct-28 14:33N 59°46' E 024°38'1111.3
2014-Oct-28 13:33N 59°42' E 024°17'1111.3
2014-Oct-28 12:33N 59°38' E 023°57'1212.2
2014-Oct-28 11:33N 59°30' E 023°38'13913.2
2014-Oct-28 01:00N 57°54' E 020°24'9518.9 220 / 221018.5 5.4 2.011.510.5
2014-Oct-27 20:00N 56°48' E 018°18'42 8.4 230 / 231021.0 5.4 2.012.010.110.0
2014-Oct-27 15:00N 56°06' E 018°12'1818.0 230 / 241022.0 5.4 2.013.111.012.5
2014-Oct-27 14:00N 55°54' E 017°48'12 6.5 240 / 251022.6 5.4 2.013.011.110.0
2014-Oct-27 12:11N 55°53' E 017°27'3716.9
2014-Oct-27 10:00N 55°42' E 016°24'3011.1 240 / 281022.310.8 3.014.010.2
2014-Oct-27 07:20N 55°33' E 015°34'1113.9
2014-Oct-27 06:33N 55°29' E 015°16'1413.8
2014-Oct-27 05:34N 55°23' E 014°55'1010.3
2014-Oct-27 04:34N 55°16' E 014°40'1414.1
2014-Oct-27 03:34N 55°07' E 014°21'1414.2
2014-Oct-27 02:34N 54°59' E 014°01'1414.4
2014-Oct-27 01:33N 54°55' E 013°37'3014.2
2014-Oct-26 23:25N 54°45' E 012°47'1314.5
2014-Oct-26 22:33N 54°39' E 012°28'1716.7
2014-Oct-26 21:31N 54°25' E 012°10'1212.1
2014-Oct-26 20:31N 54°25' E 011°49'3114.4
2014-Oct-26 18:21N 54°39' E 011°01'1312.2
2014-Oct-26 17:15N 54°51' E 010°52'2313.4
2014-Oct-26 15:31N 55°13' E 011°06'8411.9
2014-Oct-26 08:27N 56°34' E 011°41'1212.8
2014-Oct-26 07:30N 56°45' E 011°51'1313.2
2014-Oct-26 06:32N 56°57' E 011°44'1313.2
2014-Oct-26 05:33N 57°09' E 011°35'1313.1
2014-Oct-26 04:34N 57°21' E 011°27'1312.9
2014-Oct-26 03:34N 57°32' E 011°14'1414.3
2014-Oct-26 02:33N 57°40' E 010°51'8 6.3
2014-Oct-26 01:13N 57°41' E 010°36'0 0.0
2014-Oct-26 00:31N 57°41' E 010°36'0 0.0
2014-Oct-25 23:31N 57°41' E 010°36'0 0.0
2014-Oct-25 22:31N 57°41' E 010°36'0 0.0
2014-Oct-25 21:25N 57°41' E 010°36'0 0.0
2014-Oct-25 20:22N 57°41' E 010°36'0 0.0
2014-Oct-25 19:22N 57°41' E 010°36'0 0.0
2014-Oct-25 18:28N 57°41' E 010°36'0 0.0
2014-Oct-25 17:31N 57°41' E 010°36'0 0.0
2014-Oct-25 16:25N 57°41' E 010°36'0 0.0
2014-Oct-25 15:04N 57°41' E 010°36'0 0.0
2014-Oct-25 14:31N 57°41' E 010°36'0 0.0
2014-Oct-25 13:31N 57°41' E 010°36'0 0.0
2014-Oct-25 12:22N 57°41' E 010°36'0 0.0
2014-Oct-25 10:28N 57°41' E 010°36'612.6
2014-Oct-25 10:00N 57°36' E 010°30'612.4 030 / 121012.2 5.4 2.013.011.1
2014-Oct-25 09:31N 57°41' E 010°36'0 0.0
2014-Oct-25 08:25N 57°41' E 010°35'0 0.0
2014-Oct-25 07:31N 57°41' E 010°36'4 4.5
2014-Oct-25 06:33N 57°43' E 010°42'6 6.4
2014-Oct-25 05:33N 57°48' E 010°34'1211.9
2014-Oct-25 04:33N 57°47' E 010°11'12812.8
2014-Oct-24 18:32N 56°43' E 006°47'1211.8
2014-Oct-24 17:32N 56°32' E 006°41'1414.1
2014-Oct-24 16:32N 56°18' E 006°34'1414.2
2014-Oct-24 15:33N 56°05' E 006°27'1413.4
2014-Oct-24 14:33N 55°52' E 006°17'1211.7
2014-Oct-24 13:32N 55°42' E 006°07'1211.8
2014-Oct-24 12:33N 55°32' E 005°57'1211.7
2014-Oct-24 11:32N 55°22' E 005°47'1211.8
2014-Oct-24 10:33N 55°11' E 005°37'1111.6
2014-Oct-24 09:33N 55°01' E 005°27'1211.7
2014-Oct-24 08:32N 54°51' E 005°17'1211.8
2014-Oct-24 07:32N 54°41' E 005°07'2516.5
2014-Oct-24 06:00N 54°18' E 004°48'13 9.2 220 / 201014.4 5.4 0.515.514.614.4
2014-Oct-24 04:33N 54°06' E 004°37'1313.4
2014-Oct-24 03:33N 53°53' E 004°32'10810.8
2014-Oct-23 17:32N 52°11' E 003°31'1212.8
2014-Oct-23 16:33N 52°12' E 003°51'1212.4
2014-Oct-23 15:34N 52°13' E 004°11'2 1.6
2014-Oct-23 14:31N 52°13' E 004°14'0 0.0
2014-Oct-23 13:31N 52°13' E 004°14'0 0.0
2014-Oct-23 12:31N 52°13' E 004°14'0 0.0
2014-Oct-23 11:31N 52°13' E 004°14'0 0.0
2014-Oct-23 10:31N 52°13' E 004°14'0 0.1
2014-Oct-23 09:31N 52°13' E 004°14'1 2.5
2014-Oct-23 09:00N 52°12' E 004°12'1 2.7 230 / 121021.210.8 1.514.011.214.0
2014-Oct-23 08:31N 52°13' E 004°14'0 0.0
2014-Oct-23 07:31N 52°13' E 004°14'0 0.0
2014-Oct-23 06:31N 52°13' E 004°14'0 0.0
2014-Oct-23 05:31N 52°13' E 004°14'0 0.0
2014-Oct-23 04:31N 52°13' E 004°14'0 0.0
2014-Oct-23 03:31N 52°13' E 004°14'0 0.0
2014-Oct-23 02:31N 52°13' E 004°14'0 0.0
2014-Oct-23 01:31N 52°13' E 004°14'0 0.1
2014-Oct-23 00:31N 52°13' E 004°14'0 0.1
2014-Oct-22 23:31N 52°13' E 004°14'0 0.1
2014-Oct-22 22:31N 52°13' E 004°14'0 0.1
2014-Oct-22 21:31N 52°13' E 004°14'1 2.3
2014-Oct-22 21:00N 52°12' E 004°12'1 2.5 310 / 121023.2 5.4 1.013.0 7.913.0
2014-Oct-22 20:31N 52°13' E 004°14'0 0.0
2014-Oct-22 19:31N 52°13' E 004°14'0 0.1
2014-Oct-22 18:31N 52°13' E 004°14'0 0.0
2014-Oct-22 17:31N 52°13' E 004°14'0 0.0
2014-Oct-22 16:31N 52°13' E 004°14'0 0.1
2014-Oct-22 15:31N 52°13' E 004°14'0 0.0
2014-Oct-22 14:31N 52°13' E 004°14'4 4.5
2014-Oct-22 13:33N 52°12' E 004°07'1211.6
2014-Oct-22 12:33N 52°12' E 003°48'1111.1
2014-Oct-22 11:33N 52°12' E 003°30'1912.3
2014-Oct-22 10:00N 52°18' E 003°00'   320 / 301020.8 5.4 3.012.510.6
Track history (hours):
 
Tides and Currents Weather Stations Pressure Air Temp Water Temp Dewpoint Dewpoint Depression Visibility Wind Speed Wind Dir Waves Ship Positions

British Ensign

Last reported at 2014-Oct-31 20:33 UTC. Time now 2014-Oct-31 20:55 UTC.
Position N 55°08' E 014°18'.

Length 184.2 m; beam 27.4 m; draft 11.3 m.

Type: Ship. MMSI: 235010980.

Date/timePositionNaut miles runAvg speedWind from/ knotsBaromVisibWave heightAir tempDewpointWater temp
2014-Oct-31 20:33N 55°08' E 014°18'1312.7
2014-Oct-31 19:33N 55°15' E 014°37'1111.0
2014-Oct-31 18:33N 55°20' E 014°53'1010.2
2014-Oct-31 17:33N 55°26' E 015°09'1313.3
2014-Oct-31 16:33N 55°32' E 015°30'33711.9
2014-Oct-30 12:14N 59°34' E 022°47'1014.6
2014-Oct-30 11:33N 59°35' E 023°06'1313.0
2014-Oct-30 10:34N 59°39' E 023°31'1312.8
2014-Oct-30 09:34N 59°43' E 023°55'1312.8
2014-Oct-30 08:33N 59°46' E 024°20'1312.8
2014-Oct-30 07:33N 59°49' E 024°45'2512.3
2014-Oct-30 05:33N 59°57' E 025°31'1210.9
2014-Oct-30 04:27N 60°08' E 025°39'1 0.0
2014-Oct-28 18:32N 60°08' E 025°39'38 9.5
2014-Oct-28 14:33N 59°46' E 024°38'1111.3
2014-Oct-28 13:33N 59°42' E 024°17'1111.3
2014-Oct-28 12:33N 59°38' E 023°57'1212.2
2014-Oct-28 11:33N 59°30' E 023°38'13913.2
2014-Oct-28 01:00N 57°54' E 020°24'9518.9 220 / 221018.5 5.4 2.011.510.5
2014-Oct-27 20:00N 56°48' E 018°18'42 8.4 230 / 231021.0 5.4 2.012.010.110.0
2014-Oct-27 15:00N 56°06' E 018°12'1818.0 230 / 241022.0 5.4 2.013.111.012.5
2014-Oct-27 14:00N 55°54' E 017°48'12 6.5 240 / 251022.6 5.4 2.013.011.110.0
2014-Oct-27 12:11N 55°53' E 017°27'3716.9
2014-Oct-27 10:00N 55°42' E 016°24'3011.1 240 / 281022.310.8 3.014.010.2
2014-Oct-27 07:20N 55°33' E 015°34'1113.9
2014-Oct-27 06:33N 55°29' E 015°16'1413.8
2014-Oct-27 05:34N 55°23' E 014°55'1010.3
2014-Oct-27 04:34N 55°16' E 014°40'1414.1
2014-Oct-27 03:34N 55°07' E 014°21'1414.2
2014-Oct-27 02:34N 54°59' E 014°01'1414.4
2014-Oct-27 01:33N 54°55' E 013°37'3014.2
2014-Oct-26 23:25N 54°45' E 012°47'1314.5
2014-Oct-26 22:33N 54°39' E 012°28'1716.7
2014-Oct-26 21:31N 54°25' E 012°10'1212.1
2014-Oct-26 20:31N 54°25' E 011°49'3114.4
2014-Oct-26 18:21N 54°39' E 011°01'1312.2
2014-Oct-26 17:15N 54°51' E 010°52'2313.4
2014-Oct-26 15:31N 55°13' E 011°06'8411.9
2014-Oct-26 08:27N 56°34' E 011°41'1212.8
2014-Oct-26 07:30N 56°45' E 011°51'1313.2
2014-Oct-26 06:32N 56°57' E 011°44'1313.2
2014-Oct-26 05:33N 57°09' E 011°35'1313.1
2014-Oct-26 04:34N 57°21' E 011°27'1312.9
2014-Oct-26 03:34N 57°32' E 011°14'1414.3
2014-Oct-26 02:33N 57°40' E 010°51'8 6.3
2014-Oct-26 01:13N 57°41' E 010°36'0 0.0
2014-Oct-26 00:31N 57°41' E 010°36'0 0.0
2014-Oct-25 23:31N 57°41' E 010°36'0 0.0
2014-Oct-25 22:31N 57°41' E 010°36'0 0.0
2014-Oct-25 21:25N 57°41' E 010°36'0 0.0
2014-Oct-25 20:22N 57°41' E 010°36'0 0.0
2014-Oct-25 19:22N 57°41' E 010°36'0 0.0
2014-Oct-25 18:28N 57°41' E 010°36'0 0.0
2014-Oct-25 17:31N 57°41' E 010°36'0 0.0
2014-Oct-25 16:25N 57°41' E 010°36'0 0.0
2014-Oct-25 15:04N 57°41' E 010°36'0 0.0
2014-Oct-25 14:31N 57°41' E 010°36'0 0.0
2014-Oct-25 13:31N 57°41' E 010°36'0 0.0
2014-Oct-25 12:22N 57°41' E 010°36'0 0.0
2014-Oct-25 10:28N 57°41' E 010°36'612.6
2014-Oct-25 10:00N 57°36' E 010°30'612.4 030 / 121012.2 5.4 2.013.011.1
2014-Oct-25 09:31N 57°41' E 010°36'0 0.0
2014-Oct-25 08:25N 57°41' E 010°35'0 0.0
2014-Oct-25 07:31N 57°41' E 010°36'4 4.5
2014-Oct-25 06:33N 57°43' E 010°42'6 6.4
2014-Oct-25 05:33N 57°48' E 010°34'1211.9
2014-Oct-25 04:33N 57°47' E 010°11'12812.8
2014-Oct-24 18:32N 56°43' E 006°47'1211.8
2014-Oct-24 17:32N 56°32' E 006°41'1414.1
2014-Oct-24 16:32N 56°18' E 006°34'1414.2
2014-Oct-24 15:33N 56°05' E 006°27'1413.4
2014-Oct-24 14:33N 55°52' E 006°17'1211.7
2014-Oct-24 13:32N 55°42' E 006°07'1211.8
2014-Oct-24 12:33N 55°32' E 005°57'1211.7
2014-Oct-24 11:32N 55°22' E 005°47'1211.8
2014-Oct-24 10:33N 55°11' E 005°37'1111.6
2014-Oct-24 09:33N 55°01' E 005°27'1211.7
2014-Oct-24 08:32N 54°51' E 005°17'1211.8
2014-Oct-24 07:32N 54°41' E 005°07'2516.5
2014-Oct-24 06:00N 54°18' E 004°48'13 9.2 220 / 201014.4 5.4 0.515.514.614.4
2014-Oct-24 04:33N 54°06' E 004°37'1313.4
2014-Oct-24 03:33N 53°53' E 004°32'10810.8
2014-Oct-23 17:32N 52°11' E 003°31'1212.8
2014-Oct-23 16:33N 52°12' E 003°51'1212.4
2014-Oct-23 15:34N 52°13' E 004°11'2 1.6
2014-Oct-23 14:31N 52°13' E 004°14'0 0.0
2014-Oct-23 13:31N 52°13' E 004°14'0 0.0
2014-Oct-23 12:31N 52°13' E 004°14'0 0.0
2014-Oct-23 11:31N 52°13' E 004°14'0 0.0
2014-Oct-23 10:31N 52°13' E 004°14'0 0.1
2014-Oct-23 09:31N 52°13' E 004°14'1 2.5
2014-Oct-23 09:00N 52°12' E 004°12'1 2.7 230 / 121021.210.8 1.514.011.214.0
2014-Oct-23 08:31N 52°13' E 004°14'0 0.0
2014-Oct-23 07:31N 52°13' E 004°14'0 0.0
2014-Oct-23 06:31N 52°13' E 004°14'0 0.0
2014-Oct-23 05:31N 52°13' E 004°14'0 0.0
2014-Oct-23 04:31N 52°13' E 004°14'0 0.0
2014-Oct-23 03:31N 52°13' E 004°14'0 0.0
2014-Oct-23 02:31N 52°13' E 004°14'0 0.0
2014-Oct-23 01:31N 52°13' E 004°14'0 0.1
2014-Oct-23 00:31N 52°13' E 004°14'0 0.1
2014-Oct-22 23:31N 52°13' E 004°14'0 0.1
2014-Oct-22 22:31N 52°13' E 004°14'0 0.1
2014-Oct-22 21:31N 52°13' E 004°14'1 2.3
2014-Oct-22 21:00N 52°12' E 004°12'1 2.5 310 / 121023.2 5.4 1.013.0 7.913.0
2014-Oct-22 20:31N 52°13' E 004°14'0 0.0
2014-Oct-22 19:31N 52°13' E 004°14'0 0.1
2014-Oct-22 18:31N 52°13' E 004°14'0 0.0
2014-Oct-22 17:31N 52°13' E 004°14'0 0.0
2014-Oct-22 16:31N 52°13' E 004°14'0 0.1
2014-Oct-22 15:31N 52°13' E 004°14'0 0.0
2014-Oct-22 14:31N 52°13' E 004°14'4 4.5
2014-Oct-22 13:33N 52°12' E 004°07'1211.6
2014-Oct-22 12:33N 52°12' E 003°48'1111.1
2014-Oct-22 11:33N 52°12' E 003°30'1912.3
2014-Oct-22 10:00N 52°18' E 003°00'   320 / 301020.8 5.4 3.012.510.6

Dump ship's entire track history